createdAt,value
2023-12-31T00:00:30.565Z,1.23
2023-12-31T00:03:32.251Z,1.22
2023-12-31T00:06:33.874Z,1.24
2023-12-31T00:09:35.509Z,1.22
2023-12-31T00:12:38.116Z,1.24
2023-12-31T00:15:39.796Z,1.21
2023-12-31T00:18:42.214Z,1.22
2023-12-31T00:21:44.679Z,1.20
2023-12-31T00:24:46.330Z,1.18
2023-12-31T00:27:48.343Z,1.17
2023-12-31T00:30:50.493Z,1.16
2023-12-31T00:33:57.864Z,1.14
2023-12-31T00:37:00.022Z,1.13
2023-12-31T00:40:01.712Z,1.13
2023-12-31T00:43:03.703Z,1.10
2023-12-31T00:46:06.232Z,1.12
2023-12-31T00:49:08.294Z,1.13
2023-12-31T00:52:10.403Z,1.12
2023-12-31T00:55:12.112Z,1.12
2023-12-31T00:58:14.916Z,1.10
2023-12-31T01:01:17.066Z,1.09
2023-12-31T01:04:19.184Z,1.10
2023-12-31T01:07:20.921Z,1.08
2023-12-31T01:10:23.132Z,1.08
2023-12-31T01:13:25.218Z,1.05
2023-12-31T01:16:28.548Z,1.03
2023-12-31T01:19:30.930Z,1.06
2023-12-31T01:22:33.014Z,1.06
2023-12-31T01:25:34.762Z,1.03
2023-12-31T01:28:36.431Z,1.04
2023-12-31T01:31:38.852Z,1.02
2023-12-31T01:34:41.044Z,1.04
2023-12-31T01:37:43.102Z,1.03
2023-12-31T01:40:54.782Z,1.03
2023-12-31T01:44:04.544Z,1.01
2023-12-31T01:47:06.823Z,1.02
2023-12-31T01:50:09.248Z,0.99
2023-12-31T01:53:12.758Z,0.97
2023-12-31T01:56:14.993Z,0.97
2023-12-31T01:59:17.650Z,0.95
2023-12-31T02:02:22.576Z,0.93
2023-12-31T02:05:25.515Z,0.93
2023-12-31T02:08:27.754Z,0.91
2023-12-31T02:11:29.493Z,0.91
2023-12-31T02:14:31.119Z,0.90
2023-12-31T02:17:33.257Z,0.90
2023-12-31T02:20:35.487Z,0.88
2023-12-31T02:23:38.074Z,0.89
2023-12-31T02:26:41.155Z,0.88
2023-12-31T02:29:43.033Z,0.89
2023-12-31T02:32:44.750Z,0.87
2023-12-31T02:35:46.818Z,0.87
2023-12-31T02:38:50.963Z,0.85
2023-12-31T02:41:52.963Z,0.84
2023-12-31T02:44:55.184Z,0.82
2023-12-31T02:47:57.356Z,0.80
2023-12-31T02:50:59.432Z,0.78
2023-12-31T02:54:02.083Z,0.78
2023-12-31T02:57:09.592Z,0.76
2023-12-31T03:00:11.941Z,0.75
2023-12-31T03:03:13.665Z,0.75
2023-12-31T03:06:17.206Z,0.73
2023-12-31T03:09:21.841Z,0.70
2023-12-31T03:12:24.322Z,0.69
2023-12-31T03:15:26.368Z,0.69
2023-12-31T03:18:28.400Z,0.68
2023-12-31T03:21:30.525Z,0.66
2023-12-31T03:24:32.148Z,0.65
2023-12-31T03:27:34.181Z,0.63
2023-12-31T03:30:35.840Z,0.64
2023-12-31T03:33:38.038Z,0.63
2023-12-31T03:36:40.147Z,0.61
2023-12-31T03:39:42.421Z,0.60
2023-12-31T03:42:44.207Z,0.60
2023-12-31T03:45:46.975Z,0.58
2023-12-31T03:48:49.074Z,0.55
2023-12-31T03:51:51.722Z,0.55
2023-12-31T03:54:53.357Z,0.54
2023-12-31T03:57:55.421Z,0.52
2023-12-31T04:00:57.504Z,0.51
2023-12-31T04:03:59.820Z,0.48
2023-12-31T04:07:01.984Z,0.48
2023-12-31T04:10:04.190Z,0.44
2023-12-31T04:13:06.568Z,0.43
2023-12-31T04:16:11.978Z,0.39
2023-12-31T04:19:16.152Z,0.41
2023-12-31T04:22:18.912Z,0.39
2023-12-31T04:25:21.117Z,0.37
2023-12-31T04:28:22.816Z,0.35
2023-12-31T04:31:24.948Z,0.33
2023-12-31T04:34:26.632Z,0.33
2023-12-31T04:37:28.649Z,0.27
2023-12-31T04:40:30.661Z,0.29
2023-12-31T04:43:32.399Z,0.29
2023-12-31T04:46:34.486Z,0.29
2023-12-31T04:49:36.261Z,0.25
2023-12-31T04:52:38.457Z,0.25
2023-12-31T04:55:41.069Z,0.25
2023-12-31T04:58:42.749Z,0.23
2023-12-31T05:01:44.905Z,0.24
2023-12-31T05:04:47.016Z,0.20
2023-12-31T05:07:49.415Z,0.20
2023-12-31T05:10:51.166Z,0.18
2023-12-31T05:13:54.421Z,0.12
2023-12-31T05:16:56.530Z,0.14
2023-12-31T05:19:58.601Z,0.12
2023-12-31T05:23:00.819Z,0.10
2023-12-31T05:26:02.927Z,0.08
2023-12-31T05:29:05.248Z,0.05
2023-12-31T05:32:07.512Z,0.01
2023-12-31T05:35:10.334Z,-0.01
2023-12-31T05:38:12.026Z,-0.02
2023-12-31T05:41:14.416Z,-0.03
2023-12-31T05:44:16.080Z,-0.06
2023-12-31T05:47:44.345Z,-0.08
2023-12-31T05:50:40.671Z,-0.09
2023-12-31T05:53:42.782Z,-0.09
2023-12-31T05:56:44.791Z,-0.12
2023-12-31T05:59:46.498Z,-0.10
2023-12-31T06:02:48.141Z,-0.11
2023-12-31T06:05:50.922Z,-0.11
2023-12-31T06:08:52.640Z,-0.13
2023-12-31T06:11:55.444Z,-0.15
2023-12-31T06:14:57.051Z,-0.20
2023-12-31T06:17:59.246Z,-0.15
2023-12-31T06:21:01.352Z,-0.15
2023-12-31T06:24:03.527Z,-0.16
2023-12-31T06:27:05.985Z,-0.15
2023-12-31T06:30:08.496Z,-0.19
2023-12-31T06:33:10.321Z,-0.15
2023-12-31T06:36:12.131Z,-0.17
2023-12-31T06:39:14.608Z,-0.15
2023-12-31T06:42:16.293Z,-0.15
2023-12-31T06:45:18.770Z,-0.17
2023-12-31T06:48:20.955Z,-0.16
2023-12-31T06:51:22.861Z,-0.17
2023-12-31T06:54:24.922Z,-0.16
2023-12-31T06:57:26.939Z,-0.15
2023-12-31T07:00:28.991Z,-0.18
2023-12-31T07:03:30.646Z,-0.17
2023-12-31T07:06:32.688Z,-0.16
2023-12-31T07:09:34.447Z,-0.17
2023-12-31T07:12:36.125Z,-0.15
2023-12-31T07:15:38.399Z,-0.12
2023-12-31T07:18:40.119Z,-0.12
2023-12-31T07:21:41.818Z,-0.12
2023-12-31T07:24:43.432Z,-0.09
2023-12-31T07:27:45.475Z,-0.11
2023-12-31T07:30:48.395Z,-0.04
2023-12-31T07:33:51.546Z,-0.03
2023-12-31T07:36:53.183Z,-0.02
2023-12-31T07:39:54.856Z,0.02
2023-12-31T07:42:57.282Z,0.03
2023-12-31T07:45:59.871Z,0.04
2023-12-31T07:49:01.565Z,0.05
2023-12-31T07:52:03.928Z,0.07
2023-12-31T07:55:10.154Z,0.09
2023-12-31T07:58:11.919Z,0.12
2023-12-31T08:01:13.724Z,0.18
2023-12-31T08:04:15.648Z,0.22
2023-12-31T08:07:18.309Z,0.27
2023-12-31T08:10:20.358Z,0.32
2023-12-31T08:13:22.903Z,0.39
2023-12-31T08:16:24.607Z,0.45
2023-12-31T08:19:26.733Z,0.38
2023-12-31T08:22:28.519Z,0.54
2023-12-31T08:25:30.189Z,0.55
2023-12-31T08:28:32.096Z,0.56
2023-12-31T08:31:33.763Z,0.69
2023-12-31T08:34:35.511Z,0.73
2023-12-31T08:37:38.093Z,0.79
2023-12-31T08:40:40.265Z,0.78
2023-12-31T08:43:42.429Z,0.90
2023-12-31T08:46:44.208Z,0.96
2023-12-31T08:49:46.343Z,0.99
2023-12-31T08:52:48.300Z,1.06
2023-12-31T08:55:52.167Z,1.11
2023-12-31T08:58:53.964Z,1.17
2023-12-31T09:01:56.811Z,1.21
2023-12-31T09:04:58.957Z,1.27
2023-12-31T09:08:03.350Z,1.31
2023-12-31T09:11:06.115Z,1.35
2023-12-31T09:14:08.145Z,1.39
2023-12-31T09:17:10.285Z,1.40
2023-12-31T09:20:12.177Z,1.44
2023-12-31T09:23:14.724Z,1.48
2023-12-31T09:26:16.450Z,1.51
2023-12-31T09:29:18.935Z,1.54
2023-12-31T09:32:21.050Z,1.56
2023-12-31T09:35:23.143Z,1.58
2023-12-31T09:38:25.149Z,1.60
2023-12-31T09:41:28.054Z,1.63
2023-12-31T09:44:30.363Z,1.64
2023-12-31T09:47:33.301Z,1.69
2023-12-31T09:50:35.331Z,1.75
2023-12-31T09:53:40.375Z,1.81
2023-12-31T09:56:44.108Z,1.90
2023-12-31T09:59:49.673Z,1.97
2023-12-31T10:02:54.697Z,2.05
2023-12-31T10:05:58.188Z,2.12
2023-12-31T10:09:01.243Z,2.19
2023-12-31T10:12:02.894Z,2.21
2023-12-31T10:15:05.503Z,2.27
2023-12-31T10:18:09.371Z,2.24
2023-12-31T10:21:12.643Z,2.34
2023-12-31T10:24:14.795Z,2.39
2023-12-31T10:27:17.347Z,2.44
2023-12-31T10:30:20.211Z,2.49
2023-12-31T10:33:30.181Z,2.56
2023-12-31T10:36:34.632Z,2.61
2023-12-31T10:39:38.004Z,2.69
2023-12-31T10:42:40.581Z,2.74
2023-12-31T10:45:42.742Z,2.80
2023-12-31T10:49:04.871Z,2.85
2023-12-31T10:52:07.184Z,2.97
2023-12-31T10:55:13.912Z,3.03
2023-12-31T10:58:17.650Z,3.10
2023-12-31T11:01:19.769Z,3.09
2023-12-31T11:04:22.972Z,3.28
2023-12-31T11:07:28.210Z,3.35
2023-12-31T11:10:31.243Z,3.43
2023-12-31T11:13:34.682Z,3.51
2023-12-31T11:17:04.533Z,3.63
2023-12-31T11:20:41.881Z,3.71
2023-12-31T11:24:00.509Z,3.82
2023-12-31T11:27:32.318Z,3.95
2023-12-31T11:30:54.379Z,4.04
2023-12-31T11:33:56.577Z,4.11
2023-12-31T11:37:01.824Z,4.21
2023-12-31T11:40:05.934Z,4.28
2023-12-31T11:43:14.832Z,4.36
2023-12-31T11:46:39.721Z,4.45
2023-12-31T11:50:14.912Z,4.52
2023-12-31T11:53:17.327Z,4.60
2023-12-31T11:56:31.816Z,4.66
2023-12-31T11:59:37.660Z,4.75
2023-12-31T12:02:39.379Z,4.84
2023-12-31T12:05:41.129Z,4.92
2023-12-31T12:08:43.239Z,5.02
2023-12-31T12:11:45.300Z,5.13
2023-12-31T12:14:50.604Z,5.23
2023-12-31T12:17:53.475Z,5.34
2023-12-31T12:20:56.792Z,5.46
2023-12-31T12:23:58.571Z,5.58
2023-12-31T12:27:05.667Z,5.63
2023-12-31T12:30:10.313Z,5.81
2023-12-31T12:33:15.937Z,5.97
2023-12-31T12:36:19.182Z,6.09
2023-12-31T12:39:21.763Z,6.18
2023-12-31T12:42:27.365Z,6.29
2023-12-31T12:45:34.074Z,6.38
2023-12-31T12:48:41.581Z,6.47
2023-12-31T12:51:45.430Z,6.57
2023-12-31T12:54:47.065Z,6.64
2023-12-31T12:57:49.324Z,6.72
2023-12-31T13:00:50.963Z,6.78
2023-12-31T13:03:53.436Z,6.85
2023-12-31T13:06:59.088Z,6.91
2023-12-31T13:10:01.513Z,6.96
2023-12-31T13:13:04.708Z,7.03
2023-12-31T13:16:13.136Z,7.06
2023-12-31T13:19:21.471Z,7.12
2023-12-31T13:22:23.323Z,7.19
2023-12-31T13:25:25.619Z,7.23
2023-12-31T13:28:28.892Z,7.27
2023-12-31T13:31:31.078Z,7.31
2023-12-31T13:34:32.699Z,7.33
2023-12-31T13:37:34.766Z,7.38
2023-12-31T13:40:36.925Z,7.41
2023-12-31T13:43:39.047Z,7.43
2023-12-31T13:46:41.141Z,7.45
2023-12-31T13:49:42.836Z,7.47
2023-12-31T13:52:53.047Z,7.50
2023-12-31T13:55:55.173Z,7.47
2023-12-31T13:58:58.758Z,7.55
2023-12-31T14:02:00.622Z,7.59
2023-12-31T14:05:02.377Z,7.62
2023-12-31T14:08:04.517Z,7.60
2023-12-31T14:11:07.420Z,7.61
2023-12-31T14:14:10.685Z,7.62
2023-12-31T14:17:12.575Z,7.62
2023-12-31T14:20:14.378Z,7.61
2023-12-31T14:23:16.743Z,7.59
2023-12-31T14:26:18.824Z,7.60
2023-12-31T14:29:20.480Z,7.63
2023-12-31T14:32:22.337Z,7.69
2023-12-31T14:35:24.922Z,7.73
2023-12-31T14:38:27.012Z,7.76
2023-12-31T14:41:28.747Z,7.79
2023-12-31T14:44:30.874Z,7.82
2023-12-31T14:47:32.588Z,7.87
2023-12-31T14:50:36.025Z,7.85
2023-12-31T14:53:38.127Z,7.86
2023-12-31T14:56:40.206Z,7.85
2023-12-31T14:59:42.291Z,7.83
2023-12-31T15:02:44.354Z,7.78
2023-12-31T15:05:46.454Z,7.75
2023-12-31T15:08:54.141Z,7.71
2023-12-31T15:11:55.832Z,7.72
2023-12-31T15:14:58.347Z,7.69
2023-12-31T15:18:00.192Z,7.67
2023-12-31T15:21:01.972Z,7.64
2023-12-31T15:24:04.925Z,7.60
2023-12-31T15:27:07.613Z,7.53
2023-12-31T15:30:10.543Z,7.50
2023-12-31T15:33:12.427Z,7.46
2023-12-31T15:36:16.989Z,7.42
2023-12-31T15:39:20.500Z,7.39
2023-12-31T15:42:23.498Z,7.35
2023-12-31T15:45:26.551Z,7.34
2023-12-31T15:48:28.338Z,7.31
2023-12-31T15:51:30.232Z,7.28
2023-12-31T15:54:32.556Z,7.26
2023-12-31T15:57:34.175Z,7.24
2023-12-31T16:00:36.389Z,7.22
2023-12-31T16:03:38.143Z,7.21
2023-12-31T16:06:40.190Z,7.18
2023-12-31T16:09:42.315Z,7.15
2023-12-31T16:12:44.350Z,7.13
2023-12-31T16:15:45.984Z,7.10
2023-12-31T16:18:48.048Z,7.00
2023-12-31T16:21:49.870Z,6.94
2023-12-31T16:24:52.022Z,6.91
2023-12-31T16:27:54.024Z,6.86
2023-12-31T16:30:56.235Z,6.81
2023-12-31T16:33:59.060Z,6.72
2023-12-31T16:37:01.152Z,6.71
2023-12-31T16:40:03.701Z,6.64
2023-12-31T16:43:09.528Z,6.57
2023-12-31T16:46:11.526Z,6.52
2023-12-31T16:49:13.275Z,6.48
2023-12-31T16:52:14.991Z,6.41
2023-12-31T16:55:17.203Z,6.37
2023-12-31T16:58:19.383Z,6.25
2023-12-31T17:01:21.996Z,6.26
2023-12-31T17:04:23.812Z,6.19
2023-12-31T17:07:25.493Z,6.16
2023-12-31T17:10:27.591Z,6.10
2023-12-31T17:13:29.746Z,6.07
2023-12-31T17:16:31.426Z,6.04
2023-12-31T17:19:33.132Z,6.00
2023-12-31T17:22:36.439Z,5.99
2023-12-31T17:25:38.523Z,5.92
2023-12-31T17:28:40.556Z,5.84
2023-12-31T17:31:42.712Z,5.81
2023-12-31T17:34:44.399Z,5.78
2023-12-31T17:37:46.683Z,5.76
2023-12-31T17:40:50.471Z,5.69
2023-12-31T17:43:52.254Z,5.70
2023-12-31T17:46:54.372Z,5.68
2023-12-31T17:49:56.111Z,5.64
2023-12-31T17:52:59.706Z,5.59
2023-12-31T17:56:02.132Z,5.54
2023-12-31T17:59:04.032Z,5.57
2023-12-31T18:02:05.802Z,5.54
2023-12-31T18:05:07.885Z,5.47
2023-12-31T18:08:10.101Z,5.47
2023-12-31T18:11:11.782Z,5.41
2023-12-31T18:14:13.418Z,5.41
2023-12-31T18:17:16.057Z,5.38
2023-12-31T18:20:18.281Z,5.28
2023-12-31T18:23:20.475Z,5.32
2023-12-31T18:26:24.043Z,5.28
2023-12-31T18:29:26.172Z,5.25
2023-12-31T18:32:28.037Z,5.26
2023-12-31T18:35:29.755Z,5.23
2023-12-31T18:38:31.409Z,5.11
2023-12-31T18:41:33.044Z,5.18
2023-12-31T18:44:35.582Z,5.14
2023-12-31T18:47:37.282Z,5.09
2023-12-31T18:50:39.402Z,5.05
2023-12-31T18:53:41.083Z,5.02
2023-12-31T18:56:43.958Z,4.98
2023-12-31T18:59:45.985Z,4.97
2023-12-31T19:02:47.661Z,4.94
2023-12-31T19:05:49.770Z,4.95
2023-12-31T19:08:51.875Z,4.95
2023-12-31T19:11:53.960Z,4.91
2023-12-31T19:15:00.850Z,4.87
2023-12-31T19:18:05.610Z,4.87
2023-12-31T19:21:07.521Z,4.82
2023-12-31T19:24:09.240Z,4.83
2023-12-31T19:27:10.885Z,4.83
2023-12-31T19:30:12.892Z,4.81
2023-12-31T19:33:15.204Z,4.79
2023-12-31T19:36:17.384Z,4.75
2023-12-31T19:39:19.493Z,4.71
2023-12-31T19:42:21.184Z,4.71
2023-12-31T19:45:24.455Z,4.70
2023-12-31T19:48:27.566Z,4.66
2023-12-31T19:51:30.218Z,4.63
2023-12-31T19:54:31.935Z,4.61
2023-12-31T19:57:33.725Z,4.58
2023-12-31T20:00:36.470Z,4.58
2023-12-31T20:03:46.125Z,4.57
2023-12-31T20:06:48.285Z,4.53
2023-12-31T20:09:52.809Z,4.54
2023-12-31T20:12:54.462Z,4.56
2023-12-31T20:15:57.898Z,4.54
2023-12-31T20:18:59.576Z,4.54
2023-12-31T20:22:01.711Z,4.53
2023-12-31T20:25:04.903Z,4.45
2023-12-31T20:28:07.248Z,4.49
2023-12-31T20:31:08.871Z,4.45
2023-12-31T20:34:10.845Z,4.46
2023-12-31T20:37:13.049Z,4.45
2023-12-31T20:40:15.087Z,4.44
2023-12-31T20:43:17.295Z,4.40
2023-12-31T20:46:19.957Z,4.40
2023-12-31T20:49:22.046Z,4.41
2023-12-31T20:52:24.169Z,4.40
2023-12-31T20:55:27.795Z,4.37
2023-12-31T20:58:29.524Z,4.38
2023-12-31T21:01:32.322Z,4.37
2023-12-31T21:04:35.431Z,4.36
2023-12-31T21:07:38.191Z,4.33
2023-12-31T21:10:39.920Z,4.32
2023-12-31T21:13:42.565Z,4.29
2023-12-31T21:16:45.619Z,4.27
2023-12-31T21:19:47.970Z,4.25
2023-12-31T21:22:50.103Z,4.24
2023-12-31T21:25:52.011Z,4.23
2023-12-31T21:28:56.163Z,4.24
2023-12-31T21:31:58.886Z,4.21
2023-12-31T21:35:00.589Z,4.21
2023-12-31T21:38:02.404Z,4.20
2023-12-31T21:41:04.266Z,4.19
2023-12-31T21:44:12.852Z,4.19
2023-12-31T21:47:15.753Z,4.20
2023-12-31T21:50:18.385Z,4.22
2023-12-31T21:53:20.558Z,4.22
2023-12-31T21:56:46.877Z,4.21
2023-12-31T21:59:49.036Z,4.21
2023-12-31T22:02:52.404Z,4.17
2023-12-31T22:05:54.134Z,4.19
2023-12-31T22:08:55.761Z,4.21
2023-12-31T22:11:58.810Z,4.21
2023-12-31T22:15:01.294Z,4.20
2023-12-31T22:18:03.820Z,4.21
2023-12-31T22:21:05.651Z,4.21
2023-12-31T22:24:07.850Z,4.21
2023-12-31T22:27:10.290Z,4.17
2023-12-31T22:30:13.363Z,4.16
2023-12-31T22:33:15.790Z,4.16
2023-12-31T22:36:18.749Z,4.13
2023-12-31T22:39:21.335Z,4.17
2023-12-31T22:42:22.936Z,4.15
2023-12-31T22:45:25.032Z,4.14
2023-12-31T22:48:27.185Z,4.14
2023-12-31T22:51:28.853Z,4.13
2023-12-31T22:54:30.443Z,4.12
2023-12-31T22:57:32.348Z,4.06
2023-12-31T23:00:34.050Z,4.12
2023-12-31T23:03:36.115Z,4.13
2023-12-31T23:06:38.203Z,4.13
2023-12-31T23:09:39.866Z,4.10
2023-12-31T23:12:42.415Z,4.11
2023-12-31T23:15:45.506Z,4.11
2023-12-31T23:18:48.436Z,4.07
2023-12-31T23:21:50.123Z,4.05
2023-12-31T23:24:52.592Z,4.02
2023-12-31T23:27:54.211Z,4.03
2023-12-31T23:30:56.086Z,4.02
2023-12-31T23:33:58.203Z,4.03
2023-12-31T23:37:05.629Z,4.05
2023-12-31T23:40:10.122Z,4.09
2023-12-31T23:43:11.862Z,4.11
2023-12-31T23:46:13.539Z,4.17
2023-12-31T23:49:15.233Z,4.20
2023-12-31T23:52:17.773Z,4.19
2023-12-31T23:55:20.780Z,4.27
2023-12-31T23:58:23.996Z,4.28
